sensor_id;sensor_type;location;lat;lon;timestamp;P1;durP1;ratioP1;P2;durP2;ratioP2
75616;SDS011;64200;55.426;37.758;2023-08-06T00:04:02;8.05;;;5.20;;
75616;SDS011;64200;55.426;37.758;2023-08-06T00:09:02;6.53;;;5.00;;
75616;SDS011;64200;55.426;37.758;2023-08-06T00:14:03;5.82;;;4.78;;
75616;SDS011;64200;55.426;37.758;2023-08-06T00:19:04;8.27;;;4.97;;
75616;SDS011;64200;55.426;37.758;2023-08-06T00:24:04;9.55;;;4.63;;
75616;SDS011;64200;55.426;37.758;2023-08-06T00:29:05;7.20;;;4.40;;
75616;SDS011;64200;55.426;37.758;2023-08-06T00:34:05;6.70;;;4.07;;
75616;SDS011;64200;55.426;37.758;2023-08-06T00:39:06;4.97;;;4.05;;
75616;SDS011;64200;55.426;37.758;2023-08-06T00:44:07;6.22;;;3.75;;
75616;SDS011;64200;55.426;37.758;2023-08-06T00:49:07;5.40;;;4.17;;
75616;SDS011;64200;55.426;37.758;2023-08-06T00:54:09;5.68;;;4.20;;
75616;SDS011;64200;55.426;37.758;2023-08-06T00:59:10;7.47;;;4.10;;
75616;SDS011;64200;55.426;37.758;2023-08-06T01:04:11;5.78;;;4.40;;
75616;SDS011;64200;55.426;37.758;2023-08-06T01:14:30;6.20;;;4.05;;
75616;SDS011;64200;55.426;37.758;2023-08-06T01:19:38;5.95;;;4.72;;
75616;SDS011;64200;55.426;37.758;2023-08-06T01:24:38;8.63;;;4.20;;
75616;SDS011;64200;55.426;37.758;2023-08-06T01:35:28;5.80;;;4.55;;
75616;SDS011;64200;55.426;37.758;2023-08-06T01:40:30;7.47;;;4.63;;
75616;SDS011;64200;55.426;37.758;2023-08-06T01:45:32;7.22;;;4.60;;
75616;SDS011;64200;55.426;37.758;2023-08-06T01:50:32;7.53;;;3.75;;
75616;SDS011;64200;55.426;37.758;2023-08-06T01:55:33;7.13;;;4.13;;
75616;SDS011;64200;55.426;37.758;2023-08-06T02:00:33;5.27;;;4.57;;
75616;SDS011;64200;55.426;37.758;2023-08-06T02:05:34;7.83;;;3.83;;
75616;SDS011;64200;55.426;37.758;2023-08-06T02:10:34;8.97;;;4.57;;
75616;SDS011;64200;55.426;37.758;2023-08-06T02:15:35;7.33;;;3.90;;
75616;SDS011;64200;55.426;37.758;2023-08-06T02:20:35;6.90;;;4.47;;
75616;SDS011;64200;55.426;37.758;2023-08-06T02:25:36;7.20;;;4.65;;
75616;SDS011;64200;55.426;37.758;2023-08-06T02:30:36;5.13;;;4.30;;
75616;SDS011;64200;55.426;37.758;2023-08-06T02:35:37;6.53;;;4.63;;
75616;SDS011;64200;55.426;37.758;2023-08-06T02:40:42;10.03;;;4.83;;
75616;SDS011;64200;55.426;37.758;2023-08-06T02:45:46;11.38;;;5.40;;
75616;SDS011;64200;55.426;37.758;2023-08-06T02:50:46;7.40;;;5.80;;
75616;SDS011;64200;55.426;37.758;2023-08-06T02:55:47;8.40;;;6.83;;
75616;SDS011;64200;55.426;37.758;2023-08-06T03:01:04;9.65;;;7.25;;
75616;SDS011;64200;55.426;37.758;2023-08-06T03:06:05;14.00;;;7.15;;
75616;SDS011;64200;55.426;37.758;2023-08-06T03:11:06;9.90;;;6.43;;
75616;SDS011;64200;55.426;37.758;2023-08-06T03:16:06;12.87;;;5.90;;
75616;SDS011;64200;55.426;37.758;2023-08-06T03:21:07;9.13;;;5.27;;
75616;SDS011;64200;55.426;37.758;2023-08-06T03:26:07;7.67;;;5.97;;
75616;SDS011;64200;55.426;37.758;2023-08-06T03:31:08;6.97;;;5.20;;
75616;SDS011;64200;55.426;37.758;2023-08-06T03:36:08;5.32;;;4.30;;
75616;SDS011;64200;55.426;37.758;2023-08-06T03:41:09;7.40;;;4.75;;
75616;SDS011;64200;55.426;37.758;2023-08-06T03:46:09;7.93;;;4.93;;
75616;SDS011;64200;55.426;37.758;2023-08-06T03:51:10;5.82;;;3.95;;
75616;SDS011;64200;55.426;37.758;2023-08-06T03:56:10;7.82;;;4.93;;
75616;SDS011;64200;55.426;37.758;2023-08-06T04:01:11;6.47;;;4.80;;
75616;SDS011;64200;55.426;37.758;2023-08-06T04:06:11;7.28;;;4.38;;
75616;SDS011;64200;55.426;37.758;2023-08-06T04:11:12;6.88;;;4.35;;
75616;SDS011;64200;55.426;37.758;2023-08-06T04:16:13;7.43;;;4.97;;
75616;SDS011;64200;55.426;37.758;2023-08-06T04:21:14;7.05;;;4.53;;
75616;SDS011;64200;55.426;37.758;2023-08-06T04:26:15;7.80;;;4.38;;
75616;SDS011;64200;55.426;37.758;2023-08-06T04:31:15;6.03;;;4.30;;
75616;SDS011;64200;55.426;37.758;2023-08-06T04:36:16;7.13;;;3.95;;
75616;SDS011;64200;55.426;37.758;2023-08-06T04:41:17;5.93;;;4.40;;
75616;SDS011;64200;55.426;37.758;2023-08-06T04:46:18;8.57;;;4.20;;
75616;SDS011;64200;55.426;37.758;2023-08-06T04:51:18;7.10;;;4.23;;
75616;SDS011;64200;55.426;37.758;2023-08-06T04:56:19;7.47;;;4.57;;
75616;SDS011;64200;55.426;37.758;2023-08-06T05:01:19;7.60;;;4.35;;
75616;SDS011;64200;55.426;37.758;2023-08-06T05:06:20;12.43;;;4.63;;
75616;SDS011;64200;55.426;37.758;2023-08-06T05:11:20;7.57;;;4.60;;
75616;SDS011;64200;55.426;37.758;2023-08-06T05:16:21;8.57;;;4.50;;
75616;SDS011;64200;55.426;37.758;2023-08-06T05:21:21;6.07;;;3.90;;
75616;SDS011;64200;55.426;37.758;2023-08-06T05:26:21;8.47;;;4.07;;
75616;SDS011;64200;55.426;37.758;2023-08-06T05:31:22;7.87;;;4.37;;
75616;SDS011;64200;55.426;37.758;2023-08-06T05:36:22;5.17;;;4.20;;
75616;SDS011;64200;55.426;37.758;2023-08-06T05:41:23;8.63;;;4.07;;
75616;SDS011;64200;55.426;37.758;2023-08-06T05:46:23;8.40;;;4.13;;
75616;SDS011;64200;55.426;37.758;2023-08-06T05:51:25;8.50;;;4.45;;
75616;SDS011;64200;55.426;37.758;2023-08-06T05:56:26;5.97;;;4.22;;
75616;SDS011;64200;55.426;37.758;2023-08-06T06:01:27;8.15;;;4.63;;
75616;SDS011;64200;55.426;37.758;2023-08-06T06:06:27;8.45;;;4.22;;
75616;SDS011;64200;55.426;37.758;2023-08-06T06:11:28;7.30;;;4.10;;
75616;SDS011;64200;55.426;37.758;2023-08-06T06:16:28;8.18;;;4.95;;
75616;SDS011;64200;55.426;37.758;2023-08-06T06:21:29;13.27;;;4.38;;
75616;SDS011;64200;55.426;37.758;2023-08-06T06:26:30;6.03;;;3.90;;
75616;SDS011;64200;55.426;37.758;2023-08-06T06:31:30;7.50;;;4.07;;
75616;SDS011;64200;55.426;37.758;2023-08-06T06:36:31;7.17;;;4.53;;
75616;SDS011;64200;55.426;37.758;2023-08-06T06:41:31;7.70;;;4.68;;
75616;SDS011;64200;55.426;37.758;2023-08-06T06:46:33;8.73;;;4.07;;
75616;SDS011;64200;55.426;37.758;2023-08-06T06:51:33;5.15;;;3.75;;
75616;SDS011;64200;55.426;37.758;2023-08-06T06:56:34;7.10;;;4.93;;
75616;SDS011;64200;55.426;37.758;2023-08-06T07:01:34;8.93;;;4.10;;
75616;SDS011;64200;55.426;37.758;2023-08-06T07:06:35;5.43;;;4.03;;
75616;SDS011;64200;55.426;37.758;2023-08-06T07:11:35;6.55;;;4.38;;
75616;SDS011;64200;55.426;37.758;2023-08-06T07:16:36;4.65;;;4.03;;
75616;SDS011;64200;55.426;37.758;2023-08-06T07:21:36;11.27;;;4.45;;
75616;SDS011;64200;55.426;37.758;2023-08-06T07:26:37;4.83;;;4.30;;
75616;SDS011;64200;55.426;37.758;2023-08-06T07:31:38;6.60;;;3.80;;
75616;SDS011;64200;55.426;37.758;2023-08-06T07:36:38;7.40;;;4.70;;
75616;SDS011;64200;55.426;37.758;2023-08-06T07:41:39;9.50;;;4.13;;
75616;SDS011;64200;55.426;37.758;2023-08-06T07:46:40;7.53;;;3.97;;
75616;SDS011;64200;55.426;37.758;2023-08-06T07:51:41;5.82;;;3.70;;
75616;SDS011;64200;55.426;37.758;2023-08-06T07:56:41;5.60;;;3.67;;
75616;SDS011;64200;55.426;37.758;2023-08-06T08:01:42;8.05;;;4.38;;
75616;SDS011;64200;55.426;37.758;2023-08-06T08:06:42;8.70;;;3.63;;
75616;SDS011;64200;55.426;37.758;2023-08-06T08:11:43;4.03;;;3.63;;
75616;SDS011;64200;55.426;37.758;2023-08-06T08:16:43;4.53;;;3.78;;
75616;SDS011;64200;55.426;37.758;2023-08-06T08:21:44;6.63;;;3.83;;
75616;SDS011;64200;55.426;37.758;2023-08-06T08:26:44;4.20;;;3.47;;
75616;SDS011;64200;55.426;37.758;2023-08-06T08:31:45;6.00;;;3.42;;
75616;SDS011;64200;55.426;37.758;2023-08-06T08:36:46;5.25;;;3.63;;
75616;SDS011;64200;55.426;37.758;2023-08-06T08:41:47;6.03;;;3.83;;
75616;SDS011;64200;55.426;37.758;2023-08-06T08:46:48;4.32;;;3.90;;
75616;SDS011;64200;55.426;37.758;2023-08-06T08:51:49;4.40;;;3.60;;
75616;SDS011;64200;55.426;37.758;2023-08-06T08:56:53;6.40;;;3.58;;
75616;SDS011;64200;55.426;37.758;2023-08-06T09:01:55;7.55;;;4.28;;
75616;SDS011;64200;55.426;37.758;2023-08-06T09:06:56;5.95;;;4.40;;
75616;SDS011;64200;55.426;37.758;2023-08-06T09:12:02;4.97;;;4.20;;
75616;SDS011;64200;55.426;37.758;2023-08-06T09:17:11;6.65;;;3.90;;
75616;SDS011;64200;55.426;37.758;2023-08-06T09:22:11;6.10;;;3.88;;
75616;SDS011;64200;55.426;37.758;2023-08-06T09:32:14;6.50;;;4.40;;
75616;SDS011;64200;55.426;37.758;2023-08-06T09:37:15;5.53;;;4.35;;
75616;SDS011;64200;55.426;37.758;2023-08-06T09:42:16;5.85;;;4.43;;
75616;SDS011;64200;55.426;37.758;2023-08-06T09:47:16;6.07;;;3.60;;
75616;SDS011;64200;55.426;37.758;2023-08-06T09:52:18;4.80;;;3.83;;
75616;SDS011;64200;55.426;37.758;2023-08-06T09:57:19;5.07;;;3.53;;
75616;SDS011;64200;55.426;37.758;2023-08-06T10:02:20;6.38;;;4.00;;
75616;SDS011;64200;55.426;37.758;2023-08-06T10:07:24;5.78;;;3.70;;
75616;SDS011;64200;55.426;37.758;2023-08-06T10:12:25;6.55;;;3.72;;
75616;SDS011;64200;55.426;37.758;2023-08-06T10:17:29;7.45;;;4.50;;
75616;SDS011;64200;55.426;37.758;2023-08-06T10:22:32;4.30;;;3.90;;
75616;SDS011;64200;55.426;37.758;2023-08-06T10:27:34;5.22;;;3.85;;
75616;SDS011;64200;55.426;37.758;2023-08-06T10:32:54;3.92;;;3.60;;
75616;SDS011;64200;55.426;37.758;2023-08-06T10:38:05;5.95;;;3.38;;
75616;SDS011;64200;55.426;37.758;2023-08-06T10:48:44;4.72;;;3.78;;
75616;SDS011;64200;55.426;37.758;2023-08-06T10:53:46;7.60;;;4.15;;
75616;SDS011;64200;55.426;37.758;2023-08-06T10:58:49;9.25;;;3.80;;
75616;SDS011;64200;55.426;37.758;2023-08-06T11:08:53;4.15;;;3.67;;
75616;SDS011;64200;55.426;37.758;2023-08-06T11:13:55;6.15;;;3.85;;
75616;SDS011;64200;55.426;37.758;2023-08-06T11:18:55;6.10;;;3.85;;
75616;SDS011;64200;55.426;37.758;2023-08-06T11:23:57;5.63;;;3.83;;
75616;SDS011;64200;55.426;37.758;2023-08-06T11:28:58;5.00;;;4.15;;
75616;SDS011;64200;55.426;37.758;2023-08-06T11:33:58;6.10;;;3.60;;
75616;SDS011;64200;55.426;37.758;2023-08-06T11:38:59;5.65;;;3.92;;
75616;SDS011;64200;55.426;37.758;2023-08-06T11:44:00;5.45;;;3.80;;
75616;SDS011;64200;55.426;37.758;2023-08-06T11:49:01;4.53;;;3.97;;
75616;SDS011;64200;55.426;37.758;2023-08-06T11:54:02;6.05;;;3.78;;
75616;SDS011;64200;55.426;37.758;2023-08-06T11:59:02;6.50;;;4.15;;
75616;SDS011;64200;55.426;37.758;2023-08-06T12:04:04;5.75;;;3.60;;
75616;SDS011;64200;55.426;37.758;2023-08-06T12:09:05;4.82;;;4.43;;
75616;SDS011;64200;55.426;37.758;2023-08-06T12:14:05;3.97;;;3.58;;
75616;SDS011;64200;55.426;37.758;2023-08-06T12:19:06;5.22;;;3.58;;
75616;SDS011;64200;55.426;37.758;2023-08-06T12:24:07;5.80;;;4.10;;
75616;SDS011;64200;55.426;37.758;2023-08-06T12:29:07;4.78;;;4.00;;
75616;SDS011;64200;55.426;37.758;2023-08-06T12:34:08;6.23;;;3.93;;
75616;SDS011;64200;55.426;37.758;2023-08-06T12:39:08;6.90;;;4.10;;
75616;SDS011;64200;55.426;37.758;2023-08-06T12:44:09;5.07;;;3.92;;
75616;SDS011;64200;55.426;37.758;2023-08-06T12:49:09;4.63;;;4.22;;
75616;SDS011;64200;55.426;37.758;2023-08-06T12:54:10;7.20;;;4.15;;
75616;SDS011;64200;55.426;37.758;2023-08-06T12:59:11;5.83;;;4.63;;
75616;SDS011;64200;55.426;37.758;2023-08-06T13:04:11;7.00;;;4.90;;
75616;SDS011;64200;55.426;37.758;2023-08-06T13:09:12;6.53;;;4.63;;
75616;SDS011;64200;55.426;37.758;2023-08-06T13:14:13;7.55;;;5.22;;
75616;SDS011;64200;55.426;37.758;2023-08-06T13:19:14;6.50;;;4.75;;
75616;SDS011;64200;55.426;37.758;2023-08-06T13:24:15;9.80;;;5.10;;
75616;SDS011;64200;55.426;37.758;2023-08-06T13:29:15;10.23;;;4.80;;
75616;SDS011;64200;55.426;37.758;2023-08-06T13:34:16;7.30;;;4.97;;
75616;SDS011;64200;55.426;37.758;2023-08-06T13:39:16;6.75;;;4.75;;
75616;SDS011;64200;55.426;37.758;2023-08-06T13:44:17;6.35;;;4.72;;
75616;SDS011;64200;55.426;37.758;2023-08-06T13:49:18;7.17;;;3.83;;
75616;SDS011;64200;55.426;37.758;2023-08-06T13:54:18;6.20;;;5.45;;
75616;SDS011;64200;55.426;37.758;2023-08-06T13:59:20;7.53;;;4.60;;
75616;SDS011;64200;55.426;37.758;2023-08-06T14:04:21;6.70;;;4.70;;
75616;SDS011;64200;55.426;37.758;2023-08-06T14:09:21;7.50;;;4.57;;
75616;SDS011;64200;55.426;37.758;2023-08-06T14:14:22;5.68;;;4.35;;
75616;SDS011;64200;55.426;37.758;2023-08-06T14:19:26;5.47;;;4.32;;
75616;SDS011;64200;55.426;37.758;2023-08-06T14:24:26;9.80;;;5.10;;
75616;SDS011;64200;55.426;37.758;2023-08-06T14:29:27;7.65;;;4.68;;
75616;SDS011;64200;55.426;37.758;2023-08-06T14:34:27;6.90;;;5.73;;
75616;SDS011;64200;55.426;37.758;2023-08-06T14:39:28;7.23;;;4.33;;
75616;SDS011;64200;55.426;37.758;2023-08-06T14:44:28;8.57;;;4.50;;
75616;SDS011;64200;55.426;37.758;2023-08-06T14:49:29;5.93;;;4.27;;
75616;SDS011;64200;55.426;37.758;2023-08-06T14:54:29;6.95;;;4.38;;
75616;SDS011;64200;55.426;37.758;2023-08-06T14:59:30;8.35;;;5.00;;
75616;SDS011;64200;55.426;37.758;2023-08-06T15:04:31;6.53;;;4.70;;
75616;SDS011;64200;55.426;37.758;2023-08-06T15:09:32;6.65;;;4.57;;
75616;SDS011;64200;55.426;37.758;2023-08-06T15:14:32;6.97;;;5.22;;
75616;SDS011;64200;55.426;37.758;2023-08-06T15:19:33;6.43;;;4.97;;
75616;SDS011;64200;55.426;37.758;2023-08-06T15:24:33;6.18;;;4.68;;
75616;SDS011;64200;55.426;37.758;2023-08-06T15:29:34;6.13;;;4.85;;
75616;SDS011;64200;55.426;37.758;2023-08-06T15:34:34;5.78;;;4.70;;
75616;SDS011;64200;55.426;37.758;2023-08-06T15:39:35;6.70;;;4.85;;
75616;SDS011;64200;55.426;37.758;2023-08-06T15:44:36;7.32;;;4.78;;
75616;SDS011;64200;55.426;37.758;2023-08-06T15:49:36;5.47;;;4.00;;
75616;SDS011;64200;55.426;37.758;2023-08-06T15:54:37;6.35;;;4.60;;
75616;SDS011;64200;55.426;37.758;2023-08-06T15:59:37;8.05;;;4.07;;
75616;SDS011;64200;55.426;37.758;2023-08-06T16:04:38;7.82;;;4.95;;
75616;SDS011;64200;55.426;37.758;2023-08-06T16:09:38;6.63;;;4.63;;
75616;SDS011;64200;55.426;37.758;2023-08-06T16:14:39;8.10;;;5.07;;
75616;SDS011;64200;55.426;37.758;2023-08-06T16:19:41;8.15;;;5.93;;
75616;SDS011;64200;55.426;37.758;2023-08-06T16:24:42;6.75;;;5.35;;
75616;SDS011;64200;55.426;37.758;2023-08-06T16:29:43;8.77;;;5.25;;
75616;SDS011;64200;55.426;37.758;2023-08-06T16:34:46;6.80;;;5.45;;
75616;SDS011;64200;55.426;37.758;2023-08-06T16:39:46;8.95;;;5.40;;
75616;SDS011;64200;55.426;37.758;2023-08-06T16:44:48;5.78;;;4.38;;
75616;SDS011;64200;55.426;37.758;2023-08-06T16:49:49;8.75;;;5.38;;
75616;SDS011;64200;55.426;37.758;2023-08-06T16:54:49;9.88;;;6.40;;
75616;SDS011;64200;55.426;37.758;2023-08-06T16:59:50;6.00;;;4.93;;
75616;SDS011;64200;55.426;37.758;2023-08-06T17:04:51;9.53;;;5.33;;
75616;SDS011;64200;55.426;37.758;2023-08-06T17:09:51;6.37;;;4.63;;
75616;SDS011;64200;55.426;37.758;2023-08-06T17:14:52;8.45;;;4.32;;
75616;SDS011;64200;55.426;37.758;2023-08-06T17:19:52;9.25;;;4.72;;
75616;SDS011;64200;55.426;37.758;2023-08-06T17:24:53;6.33;;;4.40;;
75616;SDS011;64200;55.426;37.758;2023-08-06T17:29:53;6.65;;;4.38;;
75616;SDS011;64200;55.426;37.758;2023-08-06T17:34:54;10.23;;;5.45;;
75616;SDS011;64200;55.426;37.758;2023-08-06T17:39:55;7.13;;;4.45;;
75616;SDS011;64200;55.426;37.758;2023-08-06T17:44:55;6.35;;;5.03;;
75616;SDS011;64200;55.426;37.758;2023-08-06T17:49:56;7.13;;;4.15;;
75616;SDS011;64200;55.426;37.758;2023-08-06T17:54:56;5.40;;;4.55;;
75616;SDS011;64200;55.426;37.758;2023-08-06T17:59:57;6.63;;;4.10;;
75616;SDS011;64200;55.426;37.758;2023-08-06T18:04:57;8.50;;;4.20;;
75616;SDS011;64200;55.426;37.758;2023-08-06T18:09:58;7.32;;;4.82;;
75616;SDS011;64200;55.426;37.758;2023-08-06T18:14:58;10.85;;;5.00;;
75616;SDS011;64200;55.426;37.758;2023-08-06T18:19:59;8.25;;;5.20;;
75616;SDS011;64200;55.426;37.758;2023-08-06T18:24:59;10.82;;;5.43;;
75616;SDS011;64200;55.426;37.758;2023-08-06T18:30:04;7.80;;;4.97;;
75616;SDS011;64200;55.426;37.758;2023-08-06T18:35:06;11.35;;;5.07;;
75616;SDS011;64200;55.426;37.758;2023-08-06T18:40:08;6.80;;;4.35;;
75616;SDS011;64200;55.426;37.758;2023-08-06T18:45:09;8.35;;;5.13;;
75616;SDS011;64200;55.426;37.758;2023-08-06T18:50:10;10.55;;;6.50;;
75616;SDS011;64200;55.426;37.758;2023-08-06T18:55:11;10.63;;;6.15;;
75616;SDS011;64200;55.426;37.758;2023-08-06T19:00:11;8.57;;;5.47;;
75616;SDS011;64200;55.426;37.758;2023-08-06T19:05:13;7.32;;;5.07;;
75616;SDS011;64200;55.426;37.758;2023-08-06T19:10:13;7.85;;;5.00;;
75616;SDS011;64200;55.426;37.758;2023-08-06T19:15:14;8.18;;;5.15;;
75616;SDS011;64200;55.426;37.758;2023-08-06T19:20:14;6.55;;;4.63;;
75616;SDS011;64200;55.426;37.758;2023-08-06T19:25:15;10.18;;;5.97;;
75616;SDS011;64200;55.426;37.758;2023-08-06T19:30:16;6.47;;;4.97;;
75616;SDS011;64200;55.426;37.758;2023-08-06T19:35:16;7.88;;;4.45;;
75616;SDS011;64200;55.426;37.758;2023-08-06T19:40:17;8.20;;;4.90;;
75616;SDS011;64200;55.426;37.758;2023-08-06T19:45:18;6.32;;;4.65;;
75616;SDS011;64200;55.426;37.758;2023-08-06T19:50:18;9.43;;;5.05;;
75616;SDS011;64200;55.426;37.758;2023-08-06T19:55:19;8.33;;;4.87;;
75616;SDS011;64200;55.426;37.758;2023-08-06T20:00:19;6.40;;;4.80;;
75616;SDS011;64200;55.426;37.758;2023-08-06T20:05:20;7.93;;;4.55;;
75616;SDS011;64200;55.426;37.758;2023-08-06T20:10:20;9.10;;;4.47;;
75616;SDS011;64200;55.426;37.758;2023-08-06T20:15:21;7.60;;;4.67;;
75616;SDS011;64200;55.426;37.758;2023-08-06T20:20:21;7.87;;;4.87;;
75616;SDS011;64200;55.426;37.758;2023-08-06T20:25:22;11.13;;;5.70;;
75616;SDS011;64200;55.426;37.758;2023-08-06T20:30:22;5.05;;;4.13;;
75616;SDS011;64200;55.426;37.758;2023-08-06T20:35:23;6.13;;;4.53;;
75616;SDS011;64200;55.426;37.758;2023-08-06T20:40:23;9.00;;;4.80;;
75616;SDS011;64200;55.426;37.758;2023-08-06T20:45:24;6.82;;;3.67;;
75616;SDS011;64200;55.426;37.758;2023-08-06T20:50:24;5.47;;;4.70;;
75616;SDS011;64200;55.426;37.758;2023-08-06T20:55:25;7.57;;;5.40;;
75616;SDS011;64200;55.426;37.758;2023-08-06T21:00:26;7.28;;;4.32;;
75616;SDS011;64200;55.426;37.758;2023-08-06T21:05:27;7.30;;;4.97;;
75616;SDS011;64200;55.426;37.758;2023-08-06T21:10:29;8.32;;;4.80;;
75616;SDS011;64200;55.426;37.758;2023-08-06T21:15:30;6.80;;;4.43;;
75616;SDS011;64200;55.426;37.758;2023-08-06T21:20:30;7.57;;;4.72;;
75616;SDS011;64200;55.426;37.758;2023-08-06T21:25:31;7.57;;;4.37;;
75616;SDS011;64200;55.426;37.758;2023-08-06T21:30:31;6.37;;;4.30;;
75616;SDS011;64200;55.426;37.758;2023-08-06T21:35:32;5.55;;;3.90;;
75616;SDS011;64200;55.426;37.758;2023-08-06T21:40:33;6.82;;;4.90;;
75616;SDS011;64200;55.426;37.758;2023-08-06T21:45:34;8.63;;;4.20;;
75616;SDS011;64200;55.426;37.758;2023-08-06T21:50:35;7.63;;;4.53;;
75616;SDS011;64200;55.426;37.758;2023-08-06T21:55:36;6.07;;;4.50;;
75616;SDS011;64200;55.426;37.758;2023-08-06T22:00:36;6.32;;;4.28;;
75616;SDS011;64200;55.426;37.758;2023-08-06T22:05:37;6.80;;;4.20;;
75616;SDS011;64200;55.426;37.758;2023-08-06T22:10:37;7.97;;;4.73;;
75616;SDS011;64200;55.426;37.758;2023-08-06T22:15:38;6.63;;;4.90;;
75616;SDS011;64200;55.426;37.758;2023-08-06T22:20:38;5.90;;;4.20;;
75616;SDS011;64200;55.426;37.758;2023-08-06T22:25:39;7.07;;;4.43;;
75616;SDS011;64200;55.426;37.758;2023-08-06T22:30:39;6.67;;;4.57;;
75616;SDS011;64200;55.426;37.758;2023-08-06T22:35:40;5.93;;;4.30;;
75616;SDS011;64200;55.426;37.758;2023-08-06T22:40:41;7.00;;;4.57;;
75616;SDS011;64200;55.426;37.758;2023-08-06T22:45:41;5.50;;;4.45;;
75616;SDS011;64200;55.426;37.758;2023-08-06T22:50:42;5.32;;;4.55;;
75616;SDS011;64200;55.426;37.758;2023-08-06T22:55:43;7.28;;;4.45;;
75616;SDS011;64200;55.426;37.758;2023-08-06T23:00:43;5.43;;;4.18;;
75616;SDS011;64200;55.426;37.758;2023-08-06T23:05:44;7.97;;;4.55;;
75616;SDS011;64200;55.426;37.758;2023-08-06T23:10:44;5.43;;;3.75;;
75616;SDS011;64200;55.426;37.758;2023-08-06T23:15:45;6.78;;;4.50;;
75616;SDS011;64200;55.426;37.758;2023-08-06T23:20:45;4.67;;;3.77;;
75616;SDS011;64200;55.426;37.758;2023-08-06T23:25:46;8.68;;;4.35;;
75616;SDS011;64200;55.426;37.758;2023-08-06T23:30:47;6.20;;;3.83;;
75616;SDS011;64200;55.426;37.758;2023-08-06T23:35:52;5.55;;;4.07;;
75616;SDS011;64200;55.426;37.758;2023-08-06T23:40:52;6.20;;;4.20;;
75616;SDS011;64200;55.426;37.758;2023-08-06T23:45:53;7.38;;;4.32;;
75616;SDS011;64200;55.426;37.758;2023-08-06T23:50:55;7.55;;;4.68;;
75616;SDS011;64200;55.426;37.758;2023-08-06T23:55:56;8.20;;;4.13;;
